createdAt,value
2024-01-17T00:00:32.280Z,8.55
2024-01-17T00:01:55.556Z,7.60
2024-01-17T00:02:57.737Z,7.68
2024-01-17T00:03:59.834Z,6.90
2024-01-17T00:05:02.282Z,11.38
2024-01-17T00:06:04.869Z,7.60
2024-01-17T00:07:07.025Z,8.40
2024-01-17T00:08:10.814Z,6.25
2024-01-17T00:09:13.893Z,9.77
2024-01-17T00:10:16.326Z,11.10
2024-01-17T00:11:18.334Z,8.80
2024-01-17T00:12:20.316Z,13.20
2024-01-17T00:13:22.784Z,11.85
2024-01-17T00:14:24.746Z,8.80
2024-01-17T00:15:26.709Z,8.90
2024-01-17T00:16:28.764Z,9.10
2024-01-17T00:17:31.319Z,12.68
2024-01-17T00:18:33.707Z,9.57
2024-01-17T00:19:36.581Z,9.48
2024-01-17T00:20:38.659Z,10.15
2024-01-17T00:21:41.168Z,11.15
2024-01-17T00:22:43.242Z,12.23
2024-01-17T00:23:45.361Z,16.17
2024-01-17T00:24:47.470Z,11.63
2024-01-17T00:25:49.839Z,12.73
2024-01-17T00:26:52.148Z,12.25
2024-01-17T00:27:54.427Z,7.10
2024-01-17T00:28:57.315Z,10.02
2024-01-17T00:30:00.007Z,12.05
2024-01-17T00:31:02.275Z,13.63
2024-01-17T00:32:04.506Z,12.13
2024-01-17T00:33:06.618Z,10.32
2024-01-17T00:34:09.366Z,15.27
2024-01-17T00:35:11.688Z,12.85
2024-01-17T00:36:13.995Z,16.15
2024-01-17T00:37:16.168Z,16.45
2024-01-17T00:38:18.655Z,17.60
2024-01-17T00:39:20.761Z,21.63
2024-01-17T00:40:22.756Z,18.92
2024-01-17T00:41:24.776Z,24.02
2024-01-17T00:42:27.807Z,22.90
2024-01-17T00:43:29.827Z,19.80
2024-01-17T00:44:31.878Z,20.75
2024-01-17T00:45:33.974Z,19.85
2024-01-17T00:46:36.357Z,21.63
2024-01-17T00:47:38.347Z,21.52
2024-01-17T00:48:40.877Z,22.10
2024-01-17T00:49:43.003Z,19.33
2024-01-17T00:50:45.846Z,20.98
2024-01-17T00:51:47.956Z,19.88
2024-01-17T00:52:50.061Z,25.80
2024-01-17T00:53:54.569Z,20.33
2024-01-17T00:54:57.125Z,21.90
2024-01-17T00:55:59.303Z,20.35
2024-01-17T00:57:01.467Z,19.13
2024-01-17T00:58:03.745Z,16.90
2024-01-17T00:59:06.304Z,19.13
2024-01-17T01:00:09.641Z,18.80
2024-01-17T01:01:11.836Z,15.95
2024-01-17T01:02:13.796Z,16.15
2024-01-17T01:03:16.247Z,16.52
2024-01-17T01:04:18.693Z,18.02
2024-01-17T01:05:20.836Z,16.58
2024-01-17T01:06:22.811Z,15.88
2024-01-17T01:07:25.177Z,15.40
2024-01-17T01:08:27.390Z,17.30
2024-01-17T01:09:29.800Z,14.40
2024-01-17T01:10:32.060Z,16.15
2024-01-17T01:11:35.192Z,14.95
2024-01-17T01:12:39.129Z,13.65
2024-01-17T01:13:42.010Z,17.70
2024-01-17T01:15:46.337Z,13.52
2024-01-17T01:16:48.314Z,11.65
2024-01-17T01:17:50.543Z,14.90
2024-01-17T01:18:52.677Z,14.68
2024-01-17T01:19:56.727Z,11.85
2024-01-17T01:20:58.914Z,14.73
2024-01-17T01:22:00.951Z,15.82
2024-01-17T01:23:03.047Z,13.05
2024-01-17T01:24:05.838Z,16.00
2024-01-17T01:25:08.446Z,14.93
2024-01-17T01:26:11.024Z,15.10
2024-01-17T01:27:13.146Z,13.93
2024-01-17T01:28:15.851Z,16.75
2024-01-17T01:29:17.932Z,12.70
2024-01-17T01:30:20.014Z,19.88
2024-01-17T01:31:22.060Z,14.82
2024-01-17T01:32:24.511Z,12.82
2024-01-17T01:33:26.742Z,12.93
2024-01-17T01:34:29.028Z,12.75
2024-01-17T01:35:31.161Z,10.98
2024-01-17T01:36:33.456Z,13.23
2024-01-17T01:37:35.479Z,13.38
2024-01-17T01:38:37.551Z,11.82
2024-01-17T01:39:39.607Z,12.68
2024-01-17T01:40:42.706Z,16.67
2024-01-17T01:41:44.867Z,17.88
2024-01-17T01:42:46.844Z,13.10
2024-01-17T01:43:48.952Z,14.70
2024-01-17T01:44:51.321Z,12.30
2024-01-17T01:46:05.256Z,13.27
2024-01-17T01:47:09.363Z,12.23
2024-01-17T01:48:11.953Z,14.57
2024-01-17T01:50:18.155Z,11.77
2024-01-17T01:51:21.255Z,10.65
2024-01-17T01:52:24.316Z,13.63
2024-01-17T01:53:29.123Z,16.88
2024-01-17T01:54:32.131Z,12.15
2024-01-17T01:55:34.190Z,13.40
2024-01-17T01:56:37.414Z,15.02
2024-01-17T01:57:41.234Z,13.98
2024-01-17T01:58:45.561Z,17.13
2024-01-17T01:59:48.089Z,11.43
2024-01-17T02:00:51.498Z,14.15
2024-01-17T02:01:54.661Z,18.80
2024-01-17T02:02:56.800Z,12.93
2024-01-17T02:04:01.242Z,16.70
2024-01-17T02:05:05.509Z,12.30
2024-01-17T02:06:08.379Z,11.05
2024-01-17T02:07:14.124Z,12.75
2024-01-17T02:08:16.540Z,13.85
2024-01-17T02:09:18.724Z,12.68
2024-01-17T02:10:21.571Z,14.68
2024-01-17T02:11:23.871Z,13.18
2024-01-17T02:12:26.339Z,13.45
2024-01-17T02:13:28.432Z,14.38
2024-01-17T02:14:32.064Z,15.32
2024-01-17T02:15:34.298Z,14.05
2024-01-17T02:16:37.230Z,13.52
2024-01-17T02:18:41.702Z,12.38
2024-01-17T02:19:44.014Z,10.65
2024-01-17T02:20:46.192Z,13.05
2024-01-17T02:21:48.409Z,13.57
2024-01-17T02:22:50.788Z,12.70
2024-01-17T02:23:53.115Z,13.20
2024-01-17T02:24:55.170Z,15.38
2024-01-17T02:25:59.068Z,13.95
2024-01-17T02:27:02.625Z,14.95
2024-01-17T02:28:05.113Z,11.38
2024-01-17T02:29:07.196Z,12.32
2024-01-17T02:30:10.016Z,12.75
2024-01-17T02:31:13.577Z,13.07
2024-01-17T02:32:16.487Z,10.90
2024-01-17T02:33:19.910Z,9.75
2024-01-17T02:34:22.492Z,11.57
2024-01-17T02:35:24.962Z,9.32
2024-01-17T02:36:27.041Z,11.73
2024-01-17T02:37:30.334Z,12.23
2024-01-17T02:38:32.330Z,11.35
2024-01-17T02:39:34.630Z,13.00
2024-01-17T02:40:36.891Z,11.38
2024-01-17T02:41:39.542Z,10.85
2024-01-17T02:42:41.547Z,10.77
2024-01-17T02:43:43.968Z,11.15
2024-01-17T02:44:46.110Z,12.73
2024-01-17T02:45:48.203Z,13.88
2024-01-17T02:46:50.190Z,11.82
2024-01-17T02:47:52.585Z,11.82
2024-01-17T02:48:54.799Z,11.00
2024-01-17T02:49:58.951Z,12.35
2024-01-17T02:51:01.084Z,7.00
2024-01-17T02:52:03.505Z,15.73
2024-01-17T02:53:05.451Z,11.30
2024-01-17T02:54:07.838Z,12.10
2024-01-17T02:55:11.604Z,13.15
2024-01-17T02:56:15.668Z,11.77
2024-01-17T02:57:20.052Z,9.57
2024-01-17T02:58:22.182Z,9.05
2024-01-17T02:59:24.347Z,12.00
2024-01-17T03:00:26.805Z,9.88
2024-01-17T03:01:28.871Z,8.93
2024-01-17T03:02:30.932Z,10.63
2024-01-17T03:03:32.910Z,10.65
2024-01-17T03:04:35.306Z,10.23
2024-01-17T03:05:38.615Z,7.32
2024-01-17T03:06:40.823Z,7.85
2024-01-17T03:07:42.963Z,9.77
2024-01-17T03:08:45.785Z,6.95
2024-01-17T03:09:48.071Z,6.55
2024-01-17T03:10:50.188Z,6.32
2024-01-17T03:11:53.327Z,6.80
2024-01-17T03:12:55.902Z,11.25
2024-01-17T03:13:58.135Z,7.15
2024-01-17T03:15:00.630Z,8.15
2024-01-17T03:16:02.969Z,11.35
2024-01-17T03:17:05.496Z,7.90
2024-01-17T03:18:15.087Z,9.85
2024-01-17T03:19:17.896Z,7.25
2024-01-17T03:20:20.236Z,10.07
2024-01-17T03:21:23.126Z,8.25
2024-01-17T03:22:25.296Z,6.55
2024-01-17T03:23:27.645Z,8.10
2024-01-17T03:24:29.886Z,8.00
2024-01-17T03:25:32.403Z,8.32
2024-01-17T03:26:34.601Z,10.07
2024-01-17T03:27:37.133Z,7.32
2024-01-17T03:28:39.385Z,6.47
2024-01-17T03:29:41.939Z,7.32
2024-01-17T03:30:44.421Z,5.88
2024-01-17T03:31:48.081Z,8.18
2024-01-17T03:32:50.382Z,7.78
2024-01-17T03:33:53.275Z,8.00
2024-01-17T03:34:57.411Z,8.27
2024-01-17T03:35:59.752Z,8.48
2024-01-17T03:37:03.895Z,6.78
2024-01-17T03:38:07.641Z,5.78
2024-01-17T03:39:09.816Z,9.32
2024-01-17T03:40:12.590Z,7.00
2024-01-17T03:41:14.833Z,6.65
2024-01-17T03:42:17.998Z,6.03
2024-01-17T03:43:20.174Z,5.25
2024-01-17T03:44:23.589Z,5.90
2024-01-17T03:45:25.992Z,5.72
2024-01-17T03:46:28.520Z,4.75
2024-01-17T03:47:30.799Z,6.93
2024-01-17T03:48:33.724Z,6.05
2024-01-17T03:50:38.442Z,5.63
2024-01-17T03:51:40.512Z,5.70
2024-01-17T03:52:42.802Z,5.15
2024-01-17T03:53:44.879Z,3.42
2024-01-17T03:54:47.469Z,4.30
2024-01-17T03:55:49.646Z,3.92
2024-01-17T03:56:52.060Z,8.93
2024-01-17T03:57:54.223Z,4.72
2024-01-17T03:58:56.751Z,5.82
2024-01-17T03:59:58.964Z,5.57
2024-01-17T04:01:04.020Z,5.93
2024-01-17T04:02:06.818Z,4.20
2024-01-17T04:03:14.347Z,5.18
2024-01-17T04:04:16.710Z,6.63
2024-01-17T04:05:20.691Z,4.65
2024-01-17T04:06:24.758Z,7.10
2024-01-17T04:07:28.036Z,4.80
2024-01-17T04:08:30.754Z,5.53
2024-01-17T04:09:32.948Z,6.10
2024-01-17T04:10:35.327Z,6.15
2024-01-17T04:11:38.261Z,6.70
2024-01-17T04:12:40.518Z,4.97
2024-01-17T04:13:44.435Z,6.55
2024-01-17T04:14:46.708Z,7.47
2024-01-17T04:15:49.239Z,6.22
2024-01-17T04:16:51.397Z,5.25
2024-01-17T04:17:53.662Z,6.70
2024-01-17T04:18:56.032Z,5.80
2024-01-17T04:21:03.014Z,4.82
2024-01-17T04:22:05.354Z,6.07
2024-01-17T04:23:08.294Z,6.55
2024-01-17T04:24:10.953Z,6.03
2024-01-17T04:25:13.196Z,5.68
2024-01-17T04:26:24.340Z,6.35
2024-01-17T04:27:26.776Z,5.60
2024-01-17T04:28:29.388Z,6.85
2024-01-17T04:29:31.593Z,4.25
2024-01-17T04:30:34.200Z,5.57
2024-01-17T04:31:36.339Z,5.68
2024-01-17T04:32:39.091Z,7.47
2024-01-17T04:33:41.377Z,6.53
2024-01-17T04:34:43.919Z,5.60
2024-01-17T04:35:46.335Z,5.15
2024-01-17T04:36:48.844Z,7.57
2024-01-17T04:37:51.095Z,5.93
2024-01-17T04:38:53.521Z,7.50
2024-01-17T04:39:55.748Z,4.93
2024-01-17T04:40:58.279Z,7.45
2024-01-17T04:42:01.540Z,8.38
2024-01-17T04:43:04.009Z,5.53
2024-01-17T04:44:06.813Z,7.13
2024-01-17T04:45:10.163Z,5.63
2024-01-17T04:47:18.218Z,7.20
2024-01-17T04:48:20.497Z,5.93
2024-01-17T04:49:27.606Z,6.18
2024-01-17T04:50:31.325Z,7.43
2024-01-17T04:51:33.672Z,8.80
2024-01-17T04:52:36.454Z,7.65
2024-01-17T04:53:39.579Z,8.40
2024-01-17T04:54:41.645Z,5.40
2024-01-17T04:55:43.668Z,8.32
2024-01-17T04:56:45.698Z,6.65
2024-01-17T04:57:48.132Z,6.30
2024-01-17T04:58:50.198Z,6.38
2024-01-17T04:59:52.338Z,6.00
2024-01-17T05:00:54.616Z,6.50
2024-01-17T05:01:57.092Z,6.43
2024-01-17T05:02:59.358Z,7.00
2024-01-17T05:04:01.647Z,7.25
2024-01-17T05:05:04.006Z,6.15
2024-01-17T05:06:07.044Z,6.78
2024-01-17T05:07:10.033Z,8.70
2024-01-17T05:08:13.378Z,6.32
2024-01-17T05:09:19.041Z,7.03
2024-01-17T05:10:21.911Z,8.25
2024-01-17T05:11:25.532Z,6.35
2024-01-17T05:12:27.741Z,5.40
2024-01-17T05:13:30.000Z,5.32
2024-01-17T05:14:32.628Z,7.07
2024-01-17T05:15:34.954Z,7.57
2024-01-17T05:16:37.678Z,7.50
2024-01-17T05:17:40.026Z,6.50
2024-01-17T05:18:43.131Z,6.07
2024-01-17T05:19:45.549Z,5.40
2024-01-17T05:20:49.075Z,7.50
2024-01-17T05:21:51.340Z,8.57
2024-01-17T05:22:53.854Z,6.05
2024-01-17T05:23:56.112Z,6.78
2024-01-17T05:24:58.340Z,5.53
2024-01-17T05:26:01.100Z,6.65
2024-01-17T05:27:03.823Z,9.85
2024-01-17T05:28:07.971Z,5.40
2024-01-17T05:29:10.466Z,7.00
2024-01-17T05:30:15.906Z,7.05
2024-01-17T05:31:19.878Z,5.95
2024-01-17T05:32:22.181Z,7.85
2024-01-17T05:33:24.464Z,6.95
2024-01-17T05:34:27.163Z,6.18
2024-01-17T05:36:34.219Z,6.93
2024-01-17T05:37:39.657Z,7.82
2024-01-17T05:38:42.025Z,8.00
2024-01-17T05:39:44.554Z,6.30
2024-01-17T05:40:46.822Z,8.07
2024-01-17T05:41:49.467Z,10.52
2024-01-17T05:42:51.673Z,8.82
2024-01-17T05:43:54.103Z,6.88
2024-01-17T05:44:56.754Z,10.10
2024-01-17T05:45:59.603Z,7.88
2024-01-17T05:48:04.408Z,9.27
2024-01-17T05:49:06.639Z,9.02
2024-01-17T05:50:10.682Z,7.47
2024-01-17T05:51:14.350Z,7.65
2024-01-17T05:52:17.115Z,7.10
2024-01-17T05:53:19.284Z,8.40
2024-01-17T05:54:21.355Z,7.70
2024-01-17T05:55:23.769Z,9.10
2024-01-17T05:56:26.694Z,7.18
2024-01-17T05:57:28.962Z,8.77
2024-01-17T05:58:31.057Z,10.82
2024-01-17T05:59:33.796Z,8.90
2024-01-17T06:00:36.547Z,5.78
2024-01-17T06:01:38.723Z,8.70
2024-01-17T06:02:42.002Z,7.47
2024-01-17T06:03:44.235Z,8.45
2024-01-17T06:04:46.864Z,6.63
2024-01-17T06:05:50.175Z,6.85
2024-01-17T06:06:52.624Z,9.30
2024-01-17T06:07:56.595Z,7.15
2024-01-17T06:08:59.606Z,9.70
2024-01-17T06:10:02.420Z,7.10
2024-01-17T06:11:04.767Z,7.15
2024-01-17T06:12:07.407Z,8.88
2024-01-17T06:13:09.898Z,8.27
2024-01-17T06:14:14.756Z,11.82
2024-01-17T06:15:19.480Z,7.90
2024-01-17T06:16:22.272Z,11.13
2024-01-17T06:17:24.734Z,10.20
2024-01-17T06:18:27.564Z,8.75
2024-01-17T06:19:29.923Z,8.68
2024-01-17T06:20:32.229Z,6.50
2024-01-17T06:21:35.048Z,8.00
2024-01-17T06:22:37.206Z,9.63
2024-01-17T06:23:39.712Z,9.68
2024-01-17T06:24:42.017Z,8.00
2024-01-17T06:25:44.490Z,6.97
2024-01-17T06:26:46.593Z,7.28
2024-01-17T06:27:48.834Z,7.55
2024-01-17T06:28:50.994Z,8.30
2024-01-17T06:29:53.528Z,12.27
2024-01-17T06:30:56.028Z,12.70
2024-01-17T06:31:58.996Z,7.50
2024-01-17T06:34:04.801Z,9.55
2024-01-17T06:35:07.355Z,5.90
2024-01-17T06:36:10.163Z,8.88
2024-01-17T06:38:14.756Z,6.35
2024-01-17T06:39:18.320Z,6.10
2024-01-17T06:40:20.518Z,7.05
2024-01-17T06:41:22.785Z,5.68
2024-01-17T06:42:25.173Z,7.25
2024-01-17T06:43:27.683Z,6.03
2024-01-17T06:44:30.259Z,9.60
2024-01-17T06:45:33.057Z,6.82
2024-01-17T06:46:35.621Z,8.23
2024-01-17T06:47:37.948Z,6.50
2024-01-17T06:48:45.488Z,7.80
2024-01-17T06:49:49.918Z,9.20
2024-01-17T06:50:52.475Z,8.80
2024-01-17T06:51:54.659Z,7.97
2024-01-17T06:52:56.938Z,6.43
2024-01-17T06:54:00.321Z,8.50
2024-01-17T06:55:03.004Z,6.95
2024-01-17T06:56:05.466Z,6.85
2024-01-17T06:57:09.371Z,10.30
2024-01-17T06:58:11.900Z,8.07
2024-01-17T06:59:14.641Z,11.13
2024-01-17T07:00:17.247Z,10.32
2024-01-17T07:01:19.629Z,8.65
2024-01-17T07:02:21.853Z,9.77
2024-01-17T07:03:24.729Z,9.60
2024-01-17T07:04:27.048Z,10.05
2024-01-17T07:05:30.036Z,17.77
2024-01-17T07:06:32.391Z,13.45
2024-01-17T07:07:34.897Z,8.60
2024-01-17T07:08:37.241Z,10.52
2024-01-17T07:09:39.530Z,12.10
2024-01-17T07:10:42.048Z,10.38
2024-01-17T07:11:44.613Z,10.35
2024-01-17T07:12:46.957Z,10.63
2024-01-17T07:13:49.637Z,13.85
2024-01-17T07:14:55.575Z,11.05
2024-01-17T07:15:58.073Z,12.32
2024-01-17T07:17:00.295Z,12.43
2024-01-17T07:18:02.458Z,12.18
2024-01-17T07:19:04.610Z,11.10
2024-01-17T07:20:07.821Z,13.13
2024-01-17T07:21:10.314Z,16.02
2024-01-17T07:22:14.524Z,12.90
2024-01-17T07:23:17.463Z,13.07
2024-01-17T07:24:20.379Z,9.73
2024-01-17T07:25:23.616Z,10.65
2024-01-17T07:26:25.842Z,10.02
2024-01-17T07:27:28.390Z,13.77
2024-01-17T07:28:31.078Z,11.85
2024-01-17T07:29:33.608Z,9.55
2024-01-17T07:30:35.743Z,11.25
2024-01-17T07:31:38.068Z,12.60
2024-01-17T07:32:41.169Z,13.77
2024-01-17T07:33:43.939Z,10.70
2024-01-17T07:34:46.353Z,13.38
2024-01-17T07:35:49.410Z,13.10
2024-01-17T07:37:55.305Z,10.00
2024-01-17T07:38:57.474Z,8.68
2024-01-17T07:40:00.882Z,10.88
2024-01-17T07:41:03.461Z,11.85
2024-01-17T07:42:05.910Z,10.70
2024-01-17T07:43:08.308Z,14.25
2024-01-17T07:44:10.810Z,17.48
2024-01-17T07:45:13.508Z,16.17
2024-01-17T07:46:15.706Z,14.23
2024-01-17T07:47:18.179Z,17.95
2024-01-17T07:48:21.420Z,18.23
2024-01-17T07:49:25.151Z,10.95
2024-01-17T07:50:28.269Z,10.63
2024-01-17T07:51:30.751Z,12.95
2024-01-17T07:52:32.954Z,12.38
2024-01-17T07:53:35.394Z,11.48
2024-01-17T07:54:37.900Z,14.73
2024-01-17T07:55:40.988Z,11.02
2024-01-17T07:57:45.742Z,11.30
2024-01-17T07:58:47.953Z,11.18
2024-01-17T07:59:50.225Z,18.58
2024-01-17T08:00:52.512Z,15.80
2024-01-17T08:01:55.737Z,14.52
2024-01-17T08:04:01.111Z,16.10
2024-01-17T08:06:06.757Z,13.13
2024-01-17T08:07:10.005Z,20.02
2024-01-17T08:08:12.685Z,11.55
2024-01-17T08:09:27.596Z,17.13
2024-01-17T08:10:30.349Z,16.48
2024-01-17T08:11:32.527Z,16.98
2024-01-17T08:12:35.021Z,14.52
2024-01-17T08:13:38.016Z,17.52
2024-01-17T08:14:41.143Z,19.17
2024-01-17T08:15:43.411Z,13.13
2024-01-17T08:16:46.862Z,18.00
2024-01-17T08:17:49.622Z,17.75
2024-01-17T08:18:52.603Z,13.38
2024-01-17T08:19:54.777Z,16.17
2024-01-17T08:20:57.036Z,14.23
2024-01-17T08:21:59.203Z,14.52
2024-01-17T08:23:02.214Z,16.15
2024-01-17T08:24:04.833Z,14.07
2024-01-17T08:25:07.282Z,12.90
2024-01-17T08:26:10.120Z,14.70
2024-01-17T08:27:12.946Z,13.70
2024-01-17T08:28:15.292Z,13.52
2024-01-17T08:29:19.066Z,21.38
2024-01-17T08:30:21.602Z,14.98
2024-01-17T08:31:24.334Z,17.30
2024-01-17T08:32:26.504Z,16.73
2024-01-17T08:33:28.897Z,14.02
2024-01-17T08:34:31.353Z,15.95
2024-01-17T08:35:34.218Z,13.80
2024-01-17T08:36:36.442Z,13.05
2024-01-17T08:37:38.565Z,18.17
2024-01-17T08:38:40.712Z,13.73
2024-01-17T08:39:46.173Z,12.80
2024-01-17T08:40:48.406Z,15.13
2024-01-17T08:41:50.780Z,11.70
2024-01-17T08:42:53.083Z,17.30
2024-01-17T08:43:55.760Z,9.95
2024-01-17T08:44:57.900Z,14.02
2024-01-17T08:46:01.948Z,9.35
2024-01-17T08:47:04.331Z,11.63
2024-01-17T08:48:07.158Z,13.07
2024-01-17T08:49:09.537Z,10.80
2024-01-17T08:50:15.595Z,13.05
2024-01-17T08:51:19.138Z,17.73
2024-01-17T08:52:21.689Z,15.55
2024-01-17T08:53:24.216Z,10.80
2024-01-17T08:54:27.112Z,11.20
2024-01-17T08:55:29.291Z,12.60
2024-01-17T08:56:32.646Z,14.45
2024-01-17T08:58:36.824Z,14.95
2024-01-17T08:59:39.302Z,14.23
2024-01-17T09:00:43.487Z,15.20
2024-01-17T09:01:45.703Z,13.65
2024-01-17T09:02:48.377Z,14.00
2024-01-17T09:03:50.764Z,12.43
2024-01-17T09:04:53.290Z,10.57
2024-01-17T09:05:55.712Z,17.95
2024-01-17T09:06:58.153Z,11.00
2024-01-17T09:08:00.639Z,11.35
2024-01-17T09:09:04.810Z,14.10
2024-01-17T09:10:07.341Z,13.27
2024-01-17T09:11:09.913Z,12.45
2024-01-17T09:12:16.911Z,12.57
2024-01-17T09:13:19.930Z,10.00
2024-01-17T09:14:25.229Z,12.60
2024-01-17T09:15:27.799Z,10.82
2024-01-17T09:16:32.347Z,11.38
2024-01-17T09:17:36.309Z,11.95
2024-01-17T09:18:38.682Z,10.75
2024-01-17T09:19:40.937Z,13.85
2024-01-17T09:20:43.202Z,14.07
2024-01-17T09:21:45.819Z,14.02
2024-01-17T09:22:48.503Z,11.02
2024-01-17T09:23:50.935Z,9.60
2024-01-17T09:24:53.241Z,14.30
2024-01-17T09:25:55.832Z,8.00
2024-01-17T09:26:58.069Z,10.18
2024-01-17T09:28:00.335Z,10.65
2024-01-17T09:29:02.506Z,9.38
2024-01-17T09:30:05.495Z,11.23
2024-01-17T09:31:07.790Z,12.18
2024-01-17T09:32:10.444Z,12.02
2024-01-17T09:33:14.412Z,11.32
2024-01-17T09:34:17.745Z,9.00
2024-01-17T09:35:20.256Z,12.35
2024-01-17T09:36:22.482Z,10.57
2024-01-17T09:37:25.283Z,10.40
2024-01-17T09:38:27.869Z,12.65
2024-01-17T09:39:31.139Z,12.00
2024-01-17T09:40:35.452Z,12.05
2024-01-17T09:41:37.739Z,16.30
2024-01-17T09:42:41.206Z,8.98
2024-01-17T09:43:44.961Z,13.00
2024-01-17T09:44:48.123Z,12.30
2024-01-17T09:45:50.678Z,14.27
2024-01-17T09:46:53.321Z,9.82
2024-01-17T09:47:57.532Z,10.90
2024-01-17T09:49:03.736Z,12.20
2024-01-17T09:50:07.890Z,13.13
2024-01-17T09:51:17.326Z,9.75
2024-01-17T09:52:23.779Z,10.73
2024-01-17T09:53:30.816Z,9.50
2024-01-17T09:54:53.812Z,11.40
2024-01-17T09:56:00.153Z,9.55
2024-01-17T09:57:08.848Z,12.15
2024-01-17T09:58:13.675Z,8.45
2024-01-17T09:59:18.894Z,11.20
2024-01-17T10:00:22.684Z,15.55
2024-01-17T10:01:27.184Z,12.77
2024-01-17T10:02:31.150Z,8.32
2024-01-17T10:03:38.829Z,7.53
2024-01-17T10:04:43.089Z,8.10
2024-01-17T10:05:46.504Z,8.88
2024-01-17T10:06:50.586Z,8.57
2024-01-17T10:07:54.020Z,7.68
2024-01-17T10:08:57.734Z,11.45
2024-01-17T10:10:00.067Z,7.00
2024-01-17T10:11:02.337Z,7.43
2024-01-17T10:12:04.761Z,7.55
2024-01-17T10:13:08.409Z,10.73
2024-01-17T10:14:10.539Z,7.95
2024-01-17T10:15:13.912Z,9.77
2024-01-17T10:16:16.119Z,8.35
2024-01-17T10:17:18.620Z,7.55
2024-01-17T10:18:21.013Z,9.15
2024-01-17T10:19:26.427Z,8.13
2024-01-17T10:20:28.943Z,12.82
2024-01-17T10:21:35.428Z,9.20
2024-01-17T10:22:37.781Z,11.55
2024-01-17T10:23:41.529Z,11.45
2024-01-17T10:24:43.673Z,14.20
2024-01-17T10:25:46.105Z,15.98
2024-01-17T10:26:49.799Z,16.70
2024-01-17T10:27:52.013Z,12.88
2024-01-17T10:28:54.334Z,12.77
2024-01-17T10:29:57.282Z,13.20
2024-01-17T10:31:03.027Z,13.18
2024-01-17T10:32:05.963Z,12.57
2024-01-17T10:33:09.084Z,15.10
2024-01-17T10:34:12.480Z,14.68
2024-01-17T10:36:17.501Z,15.00
2024-01-17T10:37:20.164Z,27.02
2024-01-17T10:38:22.995Z,12.05
2024-01-17T10:39:30.456Z,16.92
2024-01-17T10:40:32.805Z,16.10
2024-01-17T10:41:35.214Z,10.68
2024-01-17T10:42:38.460Z,12.77
2024-01-17T10:44:04.020Z,9.02
2024-01-17T10:45:06.949Z,9.50
2024-01-17T10:46:12.798Z,11.25
2024-01-17T10:47:15.747Z,11.80
2024-01-17T10:48:18.209Z,10.10
2024-01-17T10:49:24.486Z,11.25
2024-01-17T10:50:26.813Z,9.65
2024-01-17T10:51:34.370Z,9.13
2024-01-17T10:52:41.171Z,10.45
2024-01-17T10:53:51.336Z,10.85
2024-01-17T10:55:06.110Z,7.75
2024-01-17T10:56:09.228Z,10.18
2024-01-17T10:57:11.974Z,9.50
2024-01-17T10:58:15.636Z,7.82
2024-01-17T10:59:21.900Z,9.40
2024-01-17T11:00:31.247Z,9.35
2024-01-17T11:01:38.723Z,9.90
2024-01-17T11:02:42.842Z,8.40
2024-01-17T11:03:47.813Z,12.40
2024-01-17T11:05:21.399Z,10.88
2024-01-17T11:07:27.663Z,10.55
2024-01-17T11:08:31.537Z,13.15
2024-01-17T11:09:35.447Z,11.07
2024-01-17T11:10:38.433Z,14.57
2024-01-17T11:11:43.506Z,15.38
2024-01-17T11:12:47.160Z,10.77
2024-01-17T11:13:52.206Z,13.75
2024-01-17T11:14:56.948Z,11.40
2024-01-17T11:16:01.451Z,11.90
2024-01-17T11:17:07.365Z,13.02
2024-01-17T11:18:11.760Z,11.27
2024-01-17T11:19:14.823Z,14.98
2024-01-17T11:20:18.793Z,10.20
2024-01-17T11:21:22.501Z,12.65
2024-01-17T11:22:24.949Z,9.90
2024-01-17T11:23:47.757Z,13.60
2024-01-17T11:25:03.351Z,11.48
2024-01-17T11:27:38.243Z,8.55
2024-01-17T11:28:59.591Z,10.27
2024-01-17T11:30:19.252Z,7.75
2024-01-17T11:31:24.239Z,10.10
2024-01-17T11:33:10.166Z,9.10
2024-01-17T11:34:13.306Z,8.55
2024-01-17T11:35:51.169Z,7.05
2024-01-17T11:36:54.494Z,7.88
2024-01-17T11:37:57.776Z,8.13
2024-01-17T11:39:00.132Z,7.80
2024-01-17T11:40:03.424Z,10.48
2024-01-17T11:41:08.847Z,9.63
2024-01-17T11:42:13.237Z,11.00
2024-01-17T11:43:16.979Z,8.93
2024-01-17T11:44:20.425Z,8.98
2024-01-17T11:45:23.890Z,12.20
2024-01-17T11:46:26.473Z,13.93
2024-01-17T11:47:28.849Z,10.18
2024-01-17T11:48:31.633Z,12.43
2024-01-17T11:49:41.397Z,8.90
2024-01-17T11:50:43.935Z,8.43
2024-01-17T11:51:46.822Z,9.63
2024-01-17T11:52:49.204Z,8.07
2024-01-17T11:53:53.130Z,10.88
2024-01-17T11:54:56.336Z,8.88
2024-01-17T11:56:02.433Z,8.32
2024-01-17T11:57:09.591Z,7.53
2024-01-17T11:58:12.670Z,8.50
2024-01-17T11:59:15.027Z,11.82
2024-01-17T12:00:22.231Z,7.13
2024-01-17T12:01:24.502Z,9.70
2024-01-17T12:02:40.927Z,7.95
2024-01-17T12:03:44.350Z,7.15
2024-01-17T12:04:47.027Z,7.63
2024-01-17T12:05:49.304Z,6.55
2024-01-17T12:06:53.627Z,7.50
2024-01-17T12:07:56.393Z,7.35
2024-01-17T12:08:58.970Z,7.85
2024-01-17T12:10:02.150Z,10.35
2024-01-17T12:11:05.607Z,7.13
2024-01-17T12:12:08.054Z,6.00
2024-01-17T12:13:10.349Z,5.43
2024-01-17T12:14:13.181Z,8.30
2024-01-17T12:15:16.167Z,5.63
2024-01-17T12:16:23.164Z,4.72
2024-01-17T12:17:25.752Z,6.90
2024-01-17T12:18:28.469Z,5.50
2024-01-17T12:19:31.374Z,6.03
2024-01-17T12:20:33.704Z,5.30
2024-01-17T12:21:36.434Z,6.88
2024-01-17T12:22:38.748Z,4.85
2024-01-17T12:23:42.494Z,3.67
2024-01-17T12:24:50.912Z,4.22
2024-01-17T12:25:54.739Z,3.95
2024-01-17T12:27:59.576Z,4.18
2024-01-17T12:29:12.793Z,5.80
2024-01-17T12:30:15.366Z,5.35
2024-01-17T12:31:18.093Z,4.30
2024-01-17T12:32:20.837Z,5.97
2024-01-17T12:33:26.466Z,4.63
2024-01-17T12:34:29.040Z,5.20
2024-01-17T12:35:31.363Z,3.92
2024-01-17T12:36:35.988Z,4.47
2024-01-17T12:37:38.409Z,5.05
2024-01-17T12:38:41.165Z,5.15
2024-01-17T12:39:43.777Z,3.97
2024-01-17T12:40:46.422Z,6.10
2024-01-17T12:41:55.350Z,3.85
2024-01-17T12:43:00.798Z,5.68
2024-01-17T12:44:03.900Z,6.47
2024-01-17T12:45:07.732Z,7.75
2024-01-17T12:46:10.287Z,5.00
2024-01-17T12:47:13.371Z,7.47
2024-01-17T12:48:16.905Z,5.78
2024-01-17T12:49:20.666Z,6.15
2024-01-17T12:50:25.306Z,5.28
2024-01-17T12:51:28.405Z,5.55
2024-01-17T12:52:30.760Z,4.63
2024-01-17T12:53:33.393Z,3.35
2024-01-17T12:54:36.682Z,6.28
2024-01-17T12:55:39.112Z,4.68
2024-01-17T12:56:41.680Z,6.57
2024-01-17T12:57:45.232Z,5.40
2024-01-17T12:58:47.671Z,4.25
2024-01-17T12:59:50.132Z,6.90
2024-01-17T13:00:52.934Z,4.28
2024-01-17T13:01:59.017Z,6.47
2024-01-17T13:03:01.615Z,5.82
2024-01-17T13:04:05.388Z,8.05
2024-01-17T13:05:11.022Z,5.57
2024-01-17T13:06:15.033Z,6.70
2024-01-17T13:07:27.729Z,5.38
2024-01-17T13:08:31.047Z,3.47
2024-01-17T13:09:34.101Z,6.63
2024-01-17T13:10:37.329Z,6.80
2024-01-17T13:11:39.835Z,6.60
2024-01-17T13:13:45.534Z,3.72
2024-01-17T13:14:49.123Z,6.75
2024-01-17T13:16:55.913Z,5.13
2024-01-17T13:18:00.143Z,5.53
2024-01-17T13:19:02.984Z,6.70
2024-01-17T13:20:17.153Z,7.85
2024-01-17T13:21:20.438Z,5.93
2024-01-17T13:22:24.267Z,4.85
2024-01-17T13:23:26.986Z,5.78
2024-01-17T13:24:29.515Z,8.32
2024-01-17T13:25:32.615Z,7.32
2024-01-17T13:26:37.499Z,7.63
2024-01-17T13:27:40.220Z,6.85
2024-01-17T13:28:42.745Z,5.60
2024-01-17T13:29:46.566Z,6.38
2024-01-17T13:30:48.974Z,5.78
2024-01-17T13:31:53.477Z,5.93
2024-01-17T13:33:01.744Z,6.30
2024-01-17T13:34:08.026Z,6.15
2024-01-17T13:35:10.434Z,6.47
2024-01-17T13:36:13.342Z,7.40
2024-01-17T13:37:15.842Z,7.72
2024-01-17T13:38:18.717Z,7.63
2024-01-17T13:39:23.436Z,6.93
2024-01-17T13:40:28.344Z,6.63
2024-01-17T13:41:33.053Z,6.78
2024-01-17T13:42:36.190Z,5.88
2024-01-17T13:43:38.785Z,5.13
2024-01-17T13:44:41.477Z,5.68
2024-01-17T13:45:43.821Z,4.93
2024-01-17T13:46:48.500Z,6.88
2024-01-17T13:47:54.299Z,6.82
2024-01-17T13:49:02.324Z,5.65
2024-01-17T13:50:15.404Z,9.43
2024-01-17T13:51:18.521Z,10.30
2024-01-17T13:52:22.469Z,5.07
2024-01-17T13:53:31.181Z,7.03
2024-01-17T13:54:33.501Z,5.57
2024-01-17T13:55:35.822Z,6.88
2024-01-17T13:56:40.262Z,5.45
2024-01-17T13:57:43.691Z,5.65
2024-01-17T13:58:46.093Z,7.20
2024-01-17T13:59:48.406Z,6.18
2024-01-17T14:00:56.871Z,7.85
2024-01-17T14:01:59.286Z,4.72
2024-01-17T14:03:02.263Z,4.60
2024-01-17T14:04:05.574Z,7.18
2024-01-17T14:05:08.430Z,7.40
2024-01-17T14:06:10.690Z,5.88
2024-01-17T14:07:13.132Z,6.82
2024-01-17T14:08:15.445Z,8.45
2024-01-17T14:09:22.106Z,5.85
2024-01-17T14:10:25.037Z,5.97
2024-01-17T14:12:30.284Z,5.28
2024-01-17T14:13:33.051Z,6.72
2024-01-17T14:14:38.012Z,5.38
2024-01-17T14:15:43.936Z,9.93